Aérodrome :
LOGIN :

S'inscrire | Disclaimer

   EN    FR    IT 

 










Légende :    VFR   VFR Marginal   IFR   IFR Intensif   IFR Très Intensif
Visi : 
Plafond : 
>= 8 km
>= 3000ft
5 à 8 km
1000 à 3000 ft
1500m à 5 km
500 à 1000 ft
800 à 1500m
200 à 500 ft
< 800m
< 200 ft
Symboles :   Orages  Brouillard  Fortes neiges  Fortes précipitations  Vent > 20 kt
SIGMETs :   Divers  Orages  Givrage  Turbulence  Onde Orograph.  Cendres Volcan.







- Altitude de l'aérodrome : 162 ft
- Code IATA : BOD
- Voir les cartes d'approche


LFBD - Bordeaux / Merignac

DERNIER METAR :
  • 171000Z AUTO 13007KT 090V150 CAVOK 11/06 Q1022 NOSIG

METARs EXPIRÉS :
  • 170930Z AUTO 13010KT CAVOK 10/06 Q1022 NOSIG
  • 170900Z AUTO 14008KT CAVOK 09/06 Q1022 NOSIG
  • 170830Z AUTO 13009KT CAVOK 08/05 Q1022 NOSIG
  • 170800Z AUTO 13009KT 9000 NSC 07/05 Q1022 NOSIG
  • 170730Z AUTO 12007KT 7000 NSC 06/05 Q1022 NOSIG

TAF TAF LFBD
Valide du 17 à 06h jusqu'au 18 à 12h UTC


170500Z 1706/1812 13008KT CAVOK TX18/1714Z TN05/1706Z
ATIS : +33 5 57 92 81 04
Pas de NOTAMs connus pour ce terrain.



MET'MAP, la Météo Aéronautique d'un coup d'oeil ! - Copyright ORBIFLY Décembre 2007 - Disclaimer

ORBIFLY MET'MAP TEAM :

Programmation & Développement : Alexandra Zaïnal
Conception & Développement : Baudouin d'Aumeries
Co-Programmation & Développement : Marc-Olivier Méhu
Soutien technique & logistique : Manuel Goepfert

Contact : metmap@orbifly.com




SOURCES & CREDITS :

   NOAA